createdAt,value
2023-03-26T00:02:56.035Z,87.99
2023-03-26T00:06:39.569Z,88.05
2023-03-26T00:10:11.615Z,88.15
2023-03-26T00:13:48.811Z,88.24
2023-03-26T00:17:26.659Z,88.30
2023-03-26T00:21:05.848Z,88.33
2023-03-26T00:24:45.964Z,88.33
2023-03-26T00:28:22.552Z,88.38
2023-03-26T00:31:57.661Z,88.46
2023-03-26T00:35:38.847Z,88.58
2023-03-26T00:39:12.797Z,88.64
2023-03-26T00:42:49.955Z,88.53
2023-03-26T00:46:30.652Z,88.51
2023-03-26T00:50:06.222Z,88.47
2023-03-26T00:53:45.393Z,88.68
2023-03-26T01:01:03.353Z,88.89
2023-03-26T01:04:37.685Z,88.85
2023-03-26T01:08:43.474Z,88.93
2023-03-26T01:11:51.281Z,88.99
2023-03-26T01:15:30.423Z,89.02
2023-03-26T01:19:23.017Z,88.99
2023-03-26T01:22:52.467Z,88.98
2023-03-26T01:26:44.120Z,88.97
2023-03-26T01:30:17.992Z,88.95
2023-03-26T01:33:47.119Z,88.94
2023-03-26T01:37:25.620Z,88.96
2023-03-26T01:41:16.248Z,88.96
2023-03-26T01:44:41.626Z,88.94
2023-03-26T01:48:10.877Z,88.98
2023-03-26T01:51:45.624Z,89.05
2023-03-26T01:59:13.590Z,89.14
2023-03-26T02:06:38.150Z,89.12
2023-03-26T02:10:02.276Z,89.11
2023-03-26T02:17:11.034Z,89.22
2023-03-26T02:20:47.154Z,89.31
2023-03-26T02:24:24.791Z,89.37
2023-03-26T02:28:02.252Z,89.45
2023-03-26T02:31:40.091Z,89.50
2023-03-26T02:35:22.494Z,89.51
2023-03-26T02:38:58.243Z,89.55
2023-03-26T02:42:32.927Z,89.65
2023-03-26T02:46:11.187Z,89.69
2023-03-26T02:49:48.092Z,89.76
2023-03-26T02:53:29.828Z,89.83
2023-03-26T02:57:05.667Z,89.88
2023-03-26T03:00:41.295Z,89.86
2023-03-26T03:04:19.272Z,89.83
2023-03-26T03:07:58.257Z,89.91
2023-03-26T03:11:35.031Z,89.91
2023-03-26T03:15:13.012Z,89.93
2023-03-26T03:18:54.904Z,89.86
2023-03-26T03:22:28.413Z,89.89
2023-03-26T03:26:06.978Z,89.84
2023-03-26T03:29:42.718Z,89.81
2023-03-26T03:33:21.505Z,89.89
2023-03-26T03:36:58.129Z,89.88
2023-03-26T03:40:35.864Z,89.93
2023-03-26T03:44:13.343Z,89.94
2023-03-26T03:47:51.225Z,89.94
2023-03-26T03:51:28.930Z,89.98
2023-03-26T03:55:07.005Z,90.04
2023-03-26T03:58:45.656Z,89.97
2023-03-26T04:02:26.918Z,90.01
2023-03-26T04:06:00.779Z,90.08
2023-03-26T04:09:37.129Z,90.14
2023-03-26T04:13:15.872Z,90.19
2023-03-26T04:16:52.408Z,90.30
2023-03-26T04:20:30.519Z,90.39
2023-03-26T04:24:07.876Z,90.42
2023-03-26T04:27:47.936Z,90.47
2023-03-26T04:31:29.577Z,90.32
2023-03-26T04:35:04.290Z,90.19
2023-03-26T04:38:42.663Z,90.10
2023-03-26T04:42:20.062Z,90.00
2023-03-26T04:45:55.599Z,90.03
2023-03-26T04:49:31.762Z,90.05
2023-03-26T04:53:15.035Z,90.10
2023-03-26T04:56:53.047Z,90.14
2023-03-26T05:00:25.007Z,90.09
2023-03-26T05:04:02.351Z,90.09
2023-03-26T05:07:41.907Z,90.08
2023-03-26T05:11:19.837Z,90.10
2023-03-26T05:14:56.095Z,90.11
2023-03-26T05:18:33.712Z,90.14
2023-03-26T05:22:11.077Z,90.18
2023-03-26T05:25:48.428Z,90.24
2023-03-26T05:29:27.196Z,90.28
2023-03-26T05:33:04.493Z,90.27
2023-03-26T05:36:42.899Z,90.24
2023-03-26T05:40:24.666Z,90.26
2023-03-26T05:44:02.121Z,90.27
2023-03-26T05:47:40.099Z,90.30
2023-03-26T05:51:17.601Z,90.29
2023-03-26T05:54:55.421Z,90.29
2023-03-26T05:58:34.350Z,90.25
2023-03-26T06:02:11.951Z,90.27
2023-03-26T06:05:48.174Z,90.33
2023-03-26T06:09:26.047Z,90.37
2023-03-26T06:13:03.894Z,90.40
2023-03-26T06:16:41.068Z,90.48
2023-03-26T06:20:18.828Z,90.48
2023-03-26T06:23:57.152Z,90.50
2023-03-26T06:27:33.990Z,90.52
2023-03-26T06:31:12.197Z,90.61
2023-03-26T06:34:50.836Z,90.62
2023-03-26T06:38:27.124Z,90.73
2023-03-26T06:42:06.775Z,90.86
2023-03-26T06:45:42.358Z,90.93
2023-03-26T06:49:21.095Z,91.05
2023-03-26T06:52:58.862Z,91.09
2023-03-26T06:56:36.319Z,91.10
2023-03-26T07:00:15.787Z,91.04
2023-03-26T07:03:52.022Z,91.05
2023-03-26T07:07:29.437Z,91.03
2023-03-26T07:11:07.579Z,91.06
2023-03-26T07:14:44.578Z,91.14
2023-03-26T07:18:22.333Z,91.18
2023-03-26T07:22:00.821Z,91.23
2023-03-26T07:25:38.363Z,91.22
2023-03-26T07:29:35.363Z,91.20
2023-03-26T07:33:00.853Z,91.25
2023-03-26T07:36:45.833Z,91.29
2023-03-26T07:40:15.678Z,91.33
2023-03-26T07:44:28.153Z,91.18
2023-03-26T07:47:49.765Z,90.96
2023-03-26T07:51:27.127Z,90.67
2023-03-26T07:55:05.019Z,90.53
2023-03-26T07:59:04.197Z,90.45
2023-03-26T08:02:31.807Z,90.34
2023-03-26T08:06:21.736Z,90.12
2023-03-26T08:09:58.772Z,89.86
2023-03-26T08:13:35.938Z,89.66
2023-03-26T08:17:12.072Z,89.47
2023-03-26T08:20:49.872Z,89.55
2023-03-26T08:24:39.328Z,89.52
2023-03-26T08:28:05.791Z,89.52
2023-03-26T08:31:39.139Z,89.61
2023-03-26T08:35:28.499Z,89.60
2023-03-26T08:38:46.910Z,89.61
2023-03-26T08:43:01.108Z,89.65
2023-03-26T08:46:29.039Z,89.74
2023-03-26T08:49:57.555Z,89.82
2023-03-26T08:53:32.115Z,89.95
2023-03-26T08:57:02.212Z,90.05
2023-03-26T09:00:59.116Z,90.14
2023-03-26T09:04:53.055Z,90.10
2023-03-26T09:08:07.413Z,89.95
2023-03-26T09:11:48.354Z,89.83
2023-03-26T09:15:47.874Z,89.67
2023-03-26T09:19:19.868Z,89.48
2023-03-26T09:22:44.150Z,89.31
2023-03-26T09:26:09.431Z,89.06
2023-03-26T09:29:51.831Z,88.99
2023-03-26T09:33:37.778Z,88.99
2023-03-26T09:37:18.952Z,88.71
2023-03-26T09:40:59.235Z,88.33
2023-03-26T09:45:12.559Z,87.99
2023-03-26T09:48:42.707Z,87.59
2023-03-26T09:52:20.711Z,87.24
2023-03-26T09:56:14.374Z,86.59
2023-03-26T09:59:48.873Z,86.24
2023-03-26T10:03:38.497Z,85.85
2023-03-26T10:07:13.591Z,85.39
2023-03-26T10:10:27.749Z,85.38
2023-03-26T10:14:08.482Z,85.48
2023-03-26T10:17:50.529Z,85.44
2023-03-26T10:21:47.786Z,85.38
2023-03-26T10:25:22.702Z,85.36
2023-03-26T10:28:48.757Z,85.18
2023-03-26T10:32:23.605Z,84.84
2023-03-26T10:35:55.177Z,84.34
2023-03-26T10:40:01.147Z,84.17
2023-03-26T10:43:29.978Z,83.92
2023-03-26T10:47:16.894Z,83.68
2023-03-26T10:50:48.641Z,83.76
2023-03-26T10:54:32.544Z,83.92
2023-03-26T10:58:14.893Z,84.28
2023-03-26T11:01:51.555Z,84.45
2023-03-26T11:05:21.475Z,84.26
2023-03-26T11:09:23.990Z,84.00
2023-03-26T11:12:54.726Z,83.72
2023-03-26T11:16:30.462Z,83.35
2023-03-26T11:19:52.673Z,83.09
2023-03-26T11:23:42.132Z,83.13
2023-03-26T11:26:56.995Z,83.14
2023-03-26T11:30:38.316Z,82.87
2023-03-26T11:34:19.095Z,82.79
2023-03-26T11:37:53.545Z,82.69
2023-03-26T11:41:28.678Z,82.69
2023-03-26T11:45:08.578Z,82.87
2023-03-26T11:48:46.942Z,82.86
2023-03-26T11:52:19.044Z,82.94
2023-03-26T11:56:04.313Z,82.58
2023-03-26T11:59:57.200Z,82.46
2023-03-26T12:03:16.290Z,82.41
2023-03-26T12:06:56.801Z,82.56
2023-03-26T12:10:43.085Z,82.85
2023-03-26T12:14:06.002Z,82.63
2023-03-26T12:17:43.416Z,82.76
2023-03-26T12:21:52.760Z,82.99
2023-03-26T12:25:18.750Z,83.29
2023-03-26T12:28:36.438Z,83.31
2023-03-26T12:32:16.150Z,83.38
2023-03-26T12:35:51.978Z,83.50
2023-03-26T12:40:09.418Z,83.63
2023-03-26T12:44:50.338Z,83.62
2023-03-26T12:47:58.450Z,83.86
2023-03-26T12:50:35.546Z,84.34
2023-03-26T12:54:04.715Z,84.88
2023-03-26T12:58:13.770Z,85.43
2023-03-26T13:01:24.547Z,85.93
2023-03-26T13:05:14.050Z,86.33
2023-03-26T13:08:57.991Z,86.56
2023-03-26T13:12:10.931Z,86.60
2023-03-26T13:15:53.072Z,86.79
2023-03-26T13:19:44.321Z,87.00
2023-03-26T13:23:19.103Z,87.28
2023-03-26T13:26:54.382Z,87.43
2023-03-26T13:30:28.993Z,86.89
2023-03-26T13:34:22.840Z,86.57
2023-03-26T13:37:52.627Z,86.04
2023-03-26T13:41:30.352Z,85.85
2023-03-26T13:45:34.892Z,85.31
2023-03-26T13:48:47.034Z,84.83
2023-03-26T13:52:35.351Z,84.58
2023-03-26T13:55:57.009Z,84.22
2023-03-26T13:59:41.845Z,83.34
2023-03-26T14:03:19.507Z,81.52
2023-03-26T14:07:23.716Z,79.88
2023-03-26T14:10:36.765Z,79.71
2023-03-26T14:14:12.448Z,78.91
2023-03-26T14:17:51.044Z,78.62
2023-03-26T14:21:55.481Z,78.60
2023-03-26T14:25:28.411Z,78.50
2023-03-26T14:28:55.390Z,78.63
2023-03-26T14:32:41.078Z,77.87
2023-03-26T14:35:49.368Z,77.22
2023-03-26T14:39:52.126Z,76.80
2023-03-26T14:43:19.544Z,76.03
2023-03-26T14:46:54.792Z,76.23
2023-03-26T14:50:20.591Z,76.04
2023-03-26T14:54:04.167Z,75.73
2023-03-26T14:57:54.522Z,75.01
2023-03-26T15:01:40.522Z,74.79
2023-03-26T15:05:28.036Z,74.39
2023-03-26T15:08:59.548Z,73.91
2023-03-26T15:12:13.562Z,74.84
2023-03-26T15:15:54.073Z,75.06
2023-03-26T15:20:00.169Z,75.07
2023-03-26T15:23:38.433Z,74.61
2023-03-26T15:26:59.679Z,73.86
2023-03-26T15:30:17.508Z,74.55
2023-03-26T15:33:58.128Z,74.18
2023-03-26T15:38:10.319Z,74.23
2023-03-26T15:41:34.801Z,73.69
2023-03-26T15:45:34.388Z,73.94
2023-03-26T15:49:16.811Z,74.09
2023-03-26T15:52:48.827Z,74.59
2023-03-26T15:56:22.236Z,75.04
2023-03-26T15:59:47.612Z,74.50
2023-03-26T16:03:11.414Z,74.20
2023-03-26T16:07:26.613Z,72.97
2023-03-26T16:10:49.735Z,73.55
2023-03-26T16:14:18.331Z,73.36
2023-03-26T16:18:19.658Z,73.48
2023-03-26T16:21:38.643Z,73.58
2023-03-26T16:25:27.155Z,73.35
2023-03-26T16:28:57.169Z,74.00
2023-03-26T16:32:33.543Z,73.22
2023-03-26T16:36:03.772Z,72.35
2023-03-26T16:39:44.647Z,73.58
2023-03-26T16:43:47.689Z,73.56
2023-03-26T16:47:19.468Z,73.87
2023-03-26T16:50:35.357Z,73.31
2023-03-26T16:54:25.465Z,73.59
2023-03-26T16:58:09.703Z,73.72
2023-03-26T17:01:46.266Z,72.99
2023-03-26T17:05:08.099Z,71.36
2023-03-26T17:08:53.788Z,72.60
2023-03-26T17:12:33.138Z,72.62
2023-03-26T17:15:58.410Z,72.56
2023-03-26T17:19:28.977Z,71.93
2023-03-26T17:23:17.825Z,72.27
2023-03-26T17:27:05.627Z,73.17
2023-03-26T17:30:58.479Z,73.55
2023-03-26T17:34:40.362Z,73.66
2023-03-26T17:37:45.819Z,73.81
2023-03-26T17:41:57.886Z,74.46
2023-03-26T17:45:30.802Z,74.55
2023-03-26T17:48:41.159Z,74.98
2023-03-26T17:52:55.827Z,74.89
2023-03-26T17:56:04.519Z,75.25
2023-03-26T17:59:39.230Z,74.91
2023-03-26T18:03:18.251Z,75.64
2023-03-26T18:07:04.294Z,75.50
2023-03-26T18:10:56.976Z,75.53
2023-03-26T18:14:44.945Z,75.55
2023-03-26T18:17:47.984Z,75.81
2023-03-26T18:21:41.534Z,75.93
2023-03-26T18:25:03.477Z,76.07
2023-03-26T18:28:46.125Z,76.65
2023-03-26T18:32:22.653Z,77.19
2023-03-26T18:35:56.432Z,77.91
2023-03-26T18:39:32.664Z,78.00
2023-03-26T18:43:28.864Z,78.37
2023-03-26T18:46:47.770Z,78.43
2023-03-26T18:50:37.107Z,79.01
2023-03-26T18:54:06.417Z,79.17
2023-03-26T18:57:43.208Z,79.43
2023-03-26T19:01:26.004Z,80.04
2023-03-26T19:04:57.124Z,80.17
2023-03-26T19:08:34.161Z,80.40
2023-03-26T19:12:23.101Z,80.96
2023-03-26T19:15:54.511Z,81.69
2023-03-26T19:19:32.559Z,81.60
2023-03-26T19:23:05.478Z,81.63
2023-03-26T19:26:42.250Z,81.86
2023-03-26T19:30:30.592Z,82.27
2023-03-26T19:34:01.076Z,82.35
2023-03-26T19:37:35.091Z,82.17
2023-03-26T19:41:18.989Z,82.55
2023-03-26T19:44:51.712Z,82.55
2023-03-26T19:48:45.953Z,82.95
2023-03-26T19:52:20.833Z,83.30
2023-03-26T19:55:53.955Z,83.23
2023-03-26T19:59:21.125Z,83.41
2023-03-26T20:02:59.401Z,83.61
2023-03-26T20:06:43.318Z,83.53
2023-03-26T20:10:14.508Z,83.47
2023-03-26T20:13:52.979Z,83.65
2023-03-26T20:17:31.234Z,83.79
2023-03-26T20:21:14.380Z,83.97
2023-03-26T20:24:45.764Z,84.08
2023-03-26T20:28:22.031Z,84.21
2023-03-26T20:31:59.990Z,84.18
2023-03-26T20:35:38.180Z,84.16
2023-03-26T20:39:15.184Z,83.99
2023-03-26T20:42:52.982Z,83.75
2023-03-26T20:46:31.912Z,83.39
2023-03-26T20:50:10.215Z,83.12
2023-03-26T20:53:48.526Z,83.05
2023-03-26T20:57:23.943Z,82.96
2023-03-26T21:01:02.576Z,82.92
2023-03-26T21:04:38.973Z,83.07
2023-03-26T21:08:19.514Z,83.21
2023-03-26T21:12:08.385Z,83.18
2023-03-26T21:15:32.836Z,83.29
2023-03-26T21:19:13.286Z,83.35
2023-03-26T21:22:54.061Z,83.18
2023-03-26T21:26:44.158Z,82.57
2023-03-26T21:30:02.769Z,82.19
2023-03-26T21:33:41.332Z,81.43
2023-03-26T21:37:19.163Z,81.06
2023-03-26T21:40:58.792Z,81.18
2023-03-26T21:44:34.607Z,81.15
2023-03-26T21:48:12.020Z,81.24
2023-03-26T21:51:49.121Z,81.44
2023-03-26T21:55:26.874Z,81.24
2023-03-26T21:59:15.940Z,80.87
2023-03-26T22:03:06.965Z,80.63
2023-03-26T22:06:37.048Z,80.78
2023-03-26T22:09:57.848Z,80.52
2023-03-26T22:13:39.009Z,80.21
2023-03-26T22:17:12.242Z,80.06
2023-03-26T22:20:50.257Z,80.26
2023-03-26T22:24:28.253Z,80.41
2023-03-26T22:28:05.745Z,80.67
2023-03-26T22:31:42.829Z,80.69
2023-03-26T22:35:20.891Z,80.58
2023-03-26T22:38:58.703Z,80.85
2023-03-26T22:42:36.664Z,81.19
2023-03-26T22:46:13.910Z,81.54
2023-03-26T22:49:51.613Z,81.61
2023-03-26T22:53:29.166Z,81.73
2023-03-26T22:57:07.070Z,82.19
2023-03-26T23:00:46.278Z,82.64
2023-03-26T23:04:31.120Z,83.14
2023-03-26T23:08:00.381Z,83.42
2023-03-26T23:11:37.361Z,83.62
2023-03-26T23:15:14.932Z,83.92
2023-03-26T23:18:53.194Z,83.91
2023-03-26T23:22:31.678Z,84.00
2023-03-26T23:26:08.700Z,84.10
2023-03-26T23:29:46.443Z,84.11
2023-03-26T23:33:26.588Z,84.46
2023-03-26T23:37:01.280Z,84.68
2023-03-26T23:40:40.848Z,84.98
2023-03-26T23:44:17.201Z,85.04
2023-03-26T23:47:53.983Z,85.13
2023-03-26T23:51:32.655Z,85.19
2023-03-26T23:55:09.993Z,85.54
2023-03-26T23:58:48.831Z,85.86
